sensor_id;sensor_type;location;lat;lon;timestamp;temperature;humidity
11963;DHT22;62678;52.130;5.584;2023-04-30T00:00:23;8.20;99.90
11963;DHT22;62678;52.130;5.584;2023-04-30T00:02:50;8.20;99.90
11963;DHT22;62678;52.130;5.584;2023-04-30T00:05:18;8.20;99.90
11963;DHT22;62678;52.130;5.584;2023-04-30T00:07:45;8.10;99.90
11963;DHT22;62678;52.130;5.584;2023-04-30T00:10:12;8.10;99.90
11963;DHT22;62678;52.130;5.584;2023-04-30T00:12:39;8.10;99.90
11963;DHT22;62678;52.130;5.584;2023-04-30T00:15:07;8.10;99.90
11963;DHT22;62678;52.130;5.584;2023-04-30T00:17:34;8.00;99.90
11963;DHT22;62678;52.130;5.584;2023-04-30T00:20:01;8.00;99.90
11963;DHT22;62678;52.130;5.584;2023-04-30T00:22:29;7.90;99.90
11963;DHT22;62678;52.130;5.584;2023-04-30T00:24:57;7.90;99.90
11963;DHT22;62678;52.130;5.584;2023-04-30T00:27:25;7.90;99.90
11963;DHT22;62678;52.130;5.584;2023-04-30T00:29:51;7.80;99.90
11963;DHT22;62678;52.130;5.584;2023-04-30T00:32:19;7.80;99.90
11963;DHT22;62678;52.130;5.584;2023-04-30T00:34:46;7.80;99.90
11963;DHT22;62678;52.130;5.584;2023-04-30T00:37:13;7.80;99.90
11963;DHT22;62678;52.130;5.584;2023-04-30T00:39:41;7.70;99.90
11963;DHT22;62678;52.130;5.584;2023-04-30T00:42:08;7.70;99.90
11963;DHT22;62678;52.130;5.584;2023-04-30T00:44:35;7.70;99.90
11963;DHT22;62678;52.130;5.584;2023-04-30T00:47:02;7.70;99.90
11963;DHT22;62678;52.130;5.584;2023-04-30T00:49:29;7.60;99.90
11963;DHT22;62678;52.130;5.584;2023-04-30T00:51:56;7.60;99.90
11963;DHT22;62678;52.130;5.584;2023-04-30T00:54:24;7.60;99.90
11963;DHT22;62678;52.130;5.584;2023-04-30T00:56:53;7.60;99.90
11963;DHT22;62678;52.130;5.584;2023-04-30T00:59:20;7.60;99.90
11963;DHT22;62678;52.130;5.584;2023-04-30T01:01:47;7.60;99.90
11963;DHT22;62678;52.130;5.584;2023-04-30T01:04:14;7.60;99.90
11963;DHT22;62678;52.130;5.584;2023-04-30T01:06:41;7.60;99.90
11963;DHT22;62678;52.130;5.584;2023-04-30T01:09:08;7.60;99.90
11963;DHT22;62678;52.130;5.584;2023-04-30T01:11:47;7.50;99.90
11963;DHT22;62678;52.130;5.584;2023-04-30T01:14:22;7.50;99.90
11963;DHT22;62678;52.130;5.584;2023-04-30T01:16:57;7.50;99.90
11963;DHT22;62678;52.130;5.584;2023-04-30T01:19:37;7.40;99.90
11963;DHT22;62678;52.130;5.584;2023-04-30T01:22:11;7.40;99.90
11963;DHT22;62678;52.130;5.584;2023-04-30T01:24:59;7.30;99.90
11963;DHT22;62678;52.130;5.584;2023-04-30T01:28:02;7.30;99.90
11963;DHT22;62678;52.130;5.584;2023-04-30T01:30:30;7.30;99.90
11963;DHT22;62678;52.130;5.584;2023-04-30T01:32:58;7.30;99.90
11963;DHT22;62678;52.130;5.584;2023-04-30T01:35:40;7.40;99.90
11963;DHT22;62678;52.130;5.584;2023-04-30T01:38:14;7.30;99.90
11963;DHT22;62678;52.130;5.584;2023-04-30T01:40:51;7.30;99.90
11963;DHT22;62678;52.130;5.584;2023-04-30T01:43:27;7.30;99.90
11963;DHT22;62678;52.130;5.584;2023-04-30T01:46:07;7.30;99.90
11963;DHT22;62678;52.130;5.584;2023-04-30T01:48:42;7.30;99.90
11963;DHT22;62678;52.130;5.584;2023-04-30T01:51:19;7.30;99.90
11963;DHT22;62678;52.130;5.584;2023-04-30T01:53:49;7.20;99.90
11963;DHT22;62678;52.130;5.584;2023-04-30T01:56:22;7.20;99.90
11963;DHT22;62678;52.130;5.584;2023-04-30T01:58:54;7.20;99.90
11963;DHT22;62678;52.130;5.584;2023-04-30T02:01:26;7.20;99.90
11963;DHT22;62678;52.130;5.584;2023-04-30T02:03:53;7.20;99.90
11963;DHT22;62678;52.130;5.584;2023-04-30T02:06:20;7.10;99.90
11963;DHT22;62678;52.130;5.584;2023-04-30T02:08:50;7.10;99.90
11963;DHT22;62678;52.130;5.584;2023-04-30T02:11:17;7.10;99.90
11963;DHT22;62678;52.130;5.584;2023-04-30T02:13:44;7.10;99.90
11963;DHT22;62678;52.130;5.584;2023-04-30T02:16:13;7.10;99.90
11963;DHT22;62678;52.130;5.584;2023-04-30T02:18:40;7.00;99.90
11963;DHT22;62678;52.130;5.584;2023-04-30T02:21:07;7.10;99.90
11963;DHT22;62678;52.130;5.584;2023-04-30T02:23:34;7.00;99.90
11963;DHT22;62678;52.130;5.584;2023-04-30T02:26:01;7.00;99.90
11963;DHT22;62678;52.130;5.584;2023-04-30T02:28:28;7.00;99.90
11963;DHT22;62678;52.130;5.584;2023-04-30T02:30:55;6.90;99.90
11963;DHT22;62678;52.130;5.584;2023-04-30T02:33:23;6.90;99.90
11963;DHT22;62678;52.130;5.584;2023-04-30T02:35:50;6.90;99.90
11963;DHT22;62678;52.130;5.584;2023-04-30T02:38:19;6.90;99.90
11963;DHT22;62678;52.130;5.584;2023-04-30T02:40:46;6.90;99.90
11963;DHT22;62678;52.130;5.584;2023-04-30T02:43:13;6.80;99.90
11963;DHT22;62678;52.130;5.584;2023-04-30T02:45:40;6.80;99.90
11963;DHT22;62678;52.130;5.584;2023-04-30T02:48:07;6.80;99.90
11963;DHT22;62678;52.130;5.584;2023-04-30T02:50:35;6.70;99.90
11963;DHT22;62678;52.130;5.584;2023-04-30T02:53:02;6.70;99.90
11963;DHT22;62678;52.130;5.584;2023-04-30T02:55:29;6.70;99.90
11963;DHT22;62678;52.130;5.584;2023-04-30T02:57:57;6.70;99.90
11963;DHT22;62678;52.130;5.584;2023-04-30T03:00:24;6.70;99.90
11963;DHT22;62678;52.130;5.584;2023-04-30T03:02:51;6.60;99.90
11963;DHT22;62678;52.130;5.584;2023-04-30T03:05:18;6.60;99.90
11963;DHT22;62678;52.130;5.584;2023-04-30T03:07:46;6.60;99.90
11963;DHT22;62678;52.130;5.584;2023-04-30T03:10:13;6.60;99.90
11963;DHT22;62678;52.130;5.584;2023-04-30T03:12:40;6.50;99.90
11963;DHT22;62678;52.130;5.584;2023-04-30T03:15:08;6.60;99.90
11963;DHT22;62678;52.130;5.584;2023-04-30T03:17:35;6.50;99.90
11963;DHT22;62678;52.130;5.584;2023-04-30T03:20:03;6.60;99.90
11963;DHT22;62678;52.130;5.584;2023-04-30T03:22:30;6.50;99.90
11963;DHT22;62678;52.130;5.584;2023-04-30T03:24:58;6.50;99.90
11963;DHT22;62678;52.130;5.584;2023-04-30T03:27:25;6.50;99.90
11963;DHT22;62678;52.130;5.584;2023-04-30T03:29:52;6.40;99.90
11963;DHT22;62678;52.130;5.584;2023-04-30T03:32:19;6.40;99.90
11963;DHT22;62678;52.130;5.584;2023-04-30T03:34:46;6.40;99.90
11963;DHT22;62678;52.130;5.584;2023-04-30T03:37:12;6.40;99.90
11963;DHT22;62678;52.130;5.584;2023-04-30T03:39:39;6.40;99.90
11963;DHT22;62678;52.130;5.584;2023-04-30T03:42:08;6.40;99.90
11963;DHT22;62678;52.130;5.584;2023-04-30T03:44:35;6.40;99.90
11963;DHT22;62678;52.130;5.584;2023-04-30T03:47:03;6.30;99.90
11963;DHT22;62678;52.130;5.584;2023-04-30T03:49:30;6.30;99.90
11963;DHT22;62678;52.130;5.584;2023-04-30T03:51:58;6.40;99.90
11963;DHT22;62678;52.130;5.584;2023-04-30T03:54:25;6.30;99.90
11963;DHT22;62678;52.130;5.584;2023-04-30T03:56:52;6.30;99.90
11963;DHT22;62678;52.130;5.584;2023-04-30T03:59:21;6.20;99.90
11963;DHT22;62678;52.130;5.584;2023-04-30T04:01:48;6.10;99.90
11963;DHT22;62678;52.130;5.584;2023-04-30T04:04:15;6.10;99.90
11963;DHT22;62678;52.130;5.584;2023-04-30T04:06:42;6.20;99.90
11963;DHT22;62678;52.130;5.584;2023-04-30T04:09:09;6.20;99.90
11963;DHT22;62678;52.130;5.584;2023-04-30T04:11:36;6.10;99.90
11963;DHT22;62678;52.130;5.584;2023-04-30T04:14:03;6.10;99.90
11963;DHT22;62678;52.130;5.584;2023-04-30T04:16:31;6.10;99.90
11963;DHT22;62678;52.130;5.584;2023-04-30T04:18:58;6.20;99.90
11963;DHT22;62678;52.130;5.584;2023-04-30T04:21:25;6.20;99.90
11963;DHT22;62678;52.130;5.584;2023-04-30T04:23:53;6.30;99.90
11963;DHT22;62678;52.130;5.584;2023-04-30T04:26:20;6.20;99.90
11963;DHT22;62678;52.130;5.584;2023-04-30T04:28:49;6.30;99.90
11963;DHT22;62678;52.130;5.584;2023-04-30T04:31:16;6.30;99.90
11963;DHT22;62678;52.130;5.584;2023-04-30T04:33:44;6.30;99.90
11963;DHT22;62678;52.130;5.584;2023-04-30T04:36:11;6.30;99.90
11963;DHT22;62678;52.130;5.584;2023-04-30T04:38:38;6.30;99.90
11963;DHT22;62678;52.130;5.584;2023-04-30T04:41:05;6.30;99.90
11963;DHT22;62678;52.130;5.584;2023-04-30T04:43:32;6.30;99.90
11963;DHT22;62678;52.130;5.584;2023-04-30T04:45:59;6.20;99.90
11963;DHT22;62678;52.130;5.584;2023-04-30T04:48:26;6.30;99.90
11963;DHT22;62678;52.130;5.584;2023-04-30T04:50:55;6.30;99.90
11963;DHT22;62678;52.130;5.584;2023-04-30T04:53:21;6.30;99.90
11963;DHT22;62678;52.130;5.584;2023-04-30T04:55:48;6.40;99.90
11963;DHT22;62678;52.130;5.584;2023-04-30T04:58:15;6.40;99.90
11963;DHT22;62678;52.130;5.584;2023-04-30T05:00:43;6.50;99.90
11963;DHT22;62678;52.130;5.584;2023-04-30T05:03:10;6.50;99.90
11963;DHT22;62678;52.130;5.584;2023-04-30T05:05:38;6.50;99.90
11963;DHT22;62678;52.130;5.584;2023-04-30T05:08:07;6.60;99.90
11963;DHT22;62678;52.130;5.584;2023-04-30T05:10:34;6.60;99.90
11963;DHT22;62678;52.130;5.584;2023-04-30T05:13:01;6.70;99.90
11963;DHT22;62678;52.130;5.584;2023-04-30T05:15:28;6.80;99.90
11963;DHT22;62678;52.130;5.584;2023-04-30T05:17:55;6.80;99.90
11963;DHT22;62678;52.130;5.584;2023-04-30T05:20:22;6.80;99.90
11963;DHT22;62678;52.130;5.584;2023-04-30T05:22:49;6.80;99.90
11963;DHT22;62678;52.130;5.584;2023-04-30T05:25:18;6.90;99.90
11963;DHT22;62678;52.130;5.584;2023-04-30T05:27:45;6.90;99.90
11963;DHT22;62678;52.130;5.584;2023-04-30T05:30:11;7.10;99.90
11963;DHT22;62678;52.130;5.584;2023-04-30T05:32:40;7.10;99.90
11963;DHT22;62678;52.130;5.584;2023-04-30T05:35:08;7.20;99.90
11963;DHT22;62678;52.130;5.584;2023-04-30T05:37:35;7.30;99.90
11963;DHT22;62678;52.130;5.584;2023-04-30T05:40:02;7.40;99.90
11963;DHT22;62678;52.130;5.584;2023-04-30T05:42:32;7.30;99.90
11963;DHT22;62678;52.130;5.584;2023-04-30T05:45:00;7.50;99.90
11963;DHT22;62678;52.130;5.584;2023-04-30T05:47:27;7.60;99.90
11963;DHT22;62678;52.130;5.584;2023-04-30T05:49:54;7.60;99.90
11963;DHT22;62678;52.130;5.584;2023-04-30T05:52:22;7.70;99.90
11963;DHT22;62678;52.130;5.584;2023-04-30T05:54:49;7.70;99.90
11963;DHT22;62678;52.130;5.584;2023-04-30T05:57:16;7.80;99.90
11963;DHT22;62678;52.130;5.584;2023-04-30T05:59:44;7.90;99.90
11963;DHT22;62678;52.130;5.584;2023-04-30T06:02:11;7.90;99.90
11963;DHT22;62678;52.130;5.584;2023-04-30T06:04:39;8.00;99.90
11963;DHT22;62678;52.130;5.584;2023-04-30T06:07:07;8.10;99.90
11963;DHT22;62678;52.130;5.584;2023-04-30T06:09:33;8.20;99.90
11963;DHT22;62678;52.130;5.584;2023-04-30T06:12:01;8.30;99.90
11963;DHT22;62678;52.130;5.584;2023-04-30T06:14:28;8.40;99.90
11963;DHT22;62678;52.130;5.584;2023-04-30T06:16:57;8.40;99.90
11963;DHT22;62678;52.130;5.584;2023-04-30T06:19:24;8.50;99.90
11963;DHT22;62678;52.130;5.584;2023-04-30T06:21:51;8.60;99.90
11963;DHT22;62678;52.130;5.584;2023-04-30T06:24:18;8.60;99.90
11963;DHT22;62678;52.130;5.584;2023-04-30T06:26:44;8.60;99.90
11963;DHT22;62678;52.130;5.584;2023-04-30T06:29:11;8.60;99.90
11963;DHT22;62678;52.130;5.584;2023-04-30T06:31:38;8.80;99.90
11963;DHT22;62678;52.130;5.584;2023-04-30T06:34:07;8.80;99.90
11963;DHT22;62678;52.130;5.584;2023-04-30T06:36:34;9.00;99.90
11963;DHT22;62678;52.130;5.584;2023-04-30T06:39:01;9.10;99.90
11963;DHT22;62678;52.130;5.584;2023-04-30T06:41:29;9.10;99.90
11963;DHT22;62678;52.130;5.584;2023-04-30T06:43:56;9.20;99.90
11963;DHT22;62678;52.130;5.584;2023-04-30T06:46:23;9.30;99.90
11963;DHT22;62678;52.130;5.584;2023-04-30T06:48:50;9.40;99.90
11963;DHT22;62678;52.130;5.584;2023-04-30T06:51:19;9.50;99.90
11963;DHT22;62678;52.130;5.584;2023-04-30T06:53:46;9.60;99.90
11963;DHT22;62678;52.130;5.584;2023-04-30T06:56:13;9.70;99.90
11963;DHT22;62678;52.130;5.584;2023-04-30T06:58:41;9.60;99.90
11963;DHT22;62678;52.130;5.584;2023-04-30T07:01:08;9.70;99.90
11963;DHT22;62678;52.130;5.584;2023-04-30T07:03:35;9.70;99.90
11963;DHT22;62678;52.130;5.584;2023-04-30T07:06:02;9.90;99.90
11963;DHT22;62678;52.130;5.584;2023-04-30T07:08:30;10.00;99.90
11963;DHT22;62678;52.130;5.584;2023-04-30T07:10:57;10.10;99.90
11963;DHT22;62678;52.130;5.584;2023-04-30T07:13:24;10.30;99.90
11963;DHT22;62678;52.130;5.584;2023-04-30T07:15:51;10.30;99.90
11963;DHT22;62678;52.130;5.584;2023-04-30T07:18:19;10.40;99.90
11963;DHT22;62678;52.130;5.584;2023-04-30T07:20:46;10.50;99.90
11963;DHT22;62678;52.130;5.584;2023-04-30T07:23:13;10.70;99.90
11963;DHT22;62678;52.130;5.584;2023-04-30T07:25:41;10.70;99.90
11963;DHT22;62678;52.130;5.584;2023-04-30T07:28:08;10.80;99.90
11963;DHT22;62678;52.130;5.584;2023-04-30T07:30:35;10.90;99.90
11963;DHT22;62678;52.130;5.584;2023-04-30T07:33:03;10.90;99.90
11963;DHT22;62678;52.130;5.584;2023-04-30T07:35:29;11.10;99.90
11963;DHT22;62678;52.130;5.584;2023-04-30T07:37:57;11.30;99.90
11963;DHT22;62678;52.130;5.584;2023-04-30T07:40:24;11.40;99.90
11963;DHT22;62678;52.130;5.584;2023-04-30T07:42:52;11.70;99.90
11963;DHT22;62678;52.130;5.584;2023-04-30T07:45:19;11.80;99.90
11963;DHT22;62678;52.130;5.584;2023-04-30T07:47:46;11.90;99.90
11963;DHT22;62678;52.130;5.584;2023-04-30T07:50:13;11.90;99.90
11963;DHT22;62678;52.130;5.584;2023-04-30T07:52:40;12.10;99.90
11963;DHT22;62678;52.130;5.584;2023-04-30T07:55:08;12.20;99.90
11963;DHT22;62678;52.130;5.584;2023-04-30T07:57:35;12.20;99.90
11963;DHT22;62678;52.130;5.584;2023-04-30T08:00:05;12.10;99.90
11963;DHT22;62678;52.130;5.584;2023-04-30T08:02:33;12.00;99.90
11963;DHT22;62678;52.130;5.584;2023-04-30T08:05:00;12.00;99.90
11963;DHT22;62678;52.130;5.584;2023-04-30T08:07:28;12.20;99.90
11963;DHT22;62678;52.130;5.584;2023-04-30T08:09:55;12.50;99.90
11963;DHT22;62678;52.130;5.584;2023-04-30T08:12:22;12.60;99.90
11963;DHT22;62678;52.130;5.584;2023-04-30T08:14:49;12.70;99.90
11963;DHT22;62678;52.130;5.584;2023-04-30T08:17:18;12.80;99.90
11963;DHT22;62678;52.130;5.584;2023-04-30T08:19:45;13.00;99.90
11963;DHT22;62678;52.130;5.584;2023-04-30T08:22:12;13.00;99.90
11963;DHT22;62678;52.130;5.584;2023-04-30T08:24:39;13.10;99.90
11963;DHT22;62678;52.130;5.584;2023-04-30T08:27:06;13.20;99.90
11963;DHT22;62678;52.130;5.584;2023-04-30T08:29:33;13.30;99.90
11963;DHT22;62678;52.130;5.584;2023-04-30T08:32:02;13.40;99.90
11963;DHT22;62678;52.130;5.584;2023-04-30T08:34:31;13.50;99.90
11963;DHT22;62678;52.130;5.584;2023-04-30T08:36:58;13.50;99.90
11963;DHT22;62678;52.130;5.584;2023-04-30T08:39:25;13.50;99.90
11963;DHT22;62678;52.130;5.584;2023-04-30T08:41:54;13.60;99.90
11963;DHT22;62678;52.130;5.584;2023-04-30T08:44:22;13.80;99.90
11963;DHT22;62678;52.130;5.584;2023-04-30T08:46:51;13.80;99.90
11963;DHT22;62678;52.130;5.584;2023-04-30T08:49:19;13.80;99.90
11963;DHT22;62678;52.130;5.584;2023-04-30T08:51:48;13.60;99.90
11963;DHT22;62678;52.130;5.584;2023-04-30T08:54:16;13.80;99.90
11963;DHT22;62678;52.130;5.584;2023-04-30T08:56:44;13.90;99.90
11963;DHT22;62678;52.130;5.584;2023-04-30T08:59:11;13.80;99.90
11963;DHT22;62678;52.130;5.584;2023-04-30T09:01:39;13.90;99.90
11963;DHT22;62678;52.130;5.584;2023-04-30T09:04:07;13.90;99.90
11963;DHT22;62678;52.130;5.584;2023-04-30T09:06:36;13.80;99.90
11963;DHT22;62678;52.130;5.584;2023-04-30T09:09:10;14.00;99.90
11963;DHT22;62678;52.130;5.584;2023-04-30T09:11:37;14.20;99.90
11963;DHT22;62678;52.130;5.584;2023-04-30T09:14:04;14.30;99.90
11963;DHT22;62678;52.130;5.584;2023-04-30T09:16:44;14.40;99.90
11963;DHT22;62678;52.130;5.584;2023-04-30T09:19:22;14.50;99.90
11963;DHT22;62678;52.130;5.584;2023-04-30T09:21:50;14.30;99.90
11963;DHT22;62678;52.130;5.584;2023-04-30T09:24:18;14.30;99.90
11963;DHT22;62678;52.130;5.584;2023-04-30T09:26:45;14.30;99.90
11963;DHT22;62678;52.130;5.584;2023-04-30T09:29:15;14.30;99.90
11963;DHT22;62678;52.130;5.584;2023-04-30T09:31:44;14.30;99.90
11963;DHT22;62678;52.130;5.584;2023-04-30T09:34:11;14.30;99.90
11963;DHT22;62678;52.130;5.584;2023-04-30T09:36:51;14.60;99.90
11963;DHT22;62678;52.130;5.584;2023-04-30T09:39:21;14.60;99.90
11963;DHT22;62678;52.130;5.584;2023-04-30T09:41:49;14.50;99.90
11963;DHT22;62678;52.130;5.584;2023-04-30T09:44:26;14.50;99.90
11963;DHT22;62678;52.130;5.584;2023-04-30T09:46:55;14.60;99.90
11963;DHT22;62678;52.130;5.584;2023-04-30T09:49:22;14.60;99.90
11963;DHT22;62678;52.130;5.584;2023-04-30T09:51:55;14.50;99.90
11963;DHT22;62678;52.130;5.584;2023-04-30T09:54:26;14.50;99.90
11963;DHT22;62678;52.130;5.584;2023-04-30T09:56:54;14.60;99.90
11963;DHT22;62678;52.130;5.584;2023-04-30T09:59:27;14.60;99.90
11963;DHT22;62678;52.130;5.584;2023-04-30T10:01:56;14.50;99.90
11963;DHT22;62678;52.130;5.584;2023-04-30T10:04:24;14.70;99.90
11963;DHT22;62678;52.130;5.584;2023-04-30T10:06:52;14.70;99.90
11963;DHT22;62678;52.130;5.584;2023-04-30T10:09:21;14.70;99.90
11963;DHT22;62678;52.130;5.584;2023-04-30T10:11:52;15.00;99.90
11963;DHT22;62678;52.130;5.584;2023-04-30T10:14:20;15.10;99.90
11963;DHT22;62678;52.130;5.584;2023-04-30T10:16:53;15.30;99.90
11963;DHT22;62678;52.130;5.584;2023-04-30T10:19:24;15.60;99.90
11963;DHT22;62678;52.130;5.584;2023-04-30T10:21:52;15.50;99.90
11963;DHT22;62678;52.130;5.584;2023-04-30T10:24:19;15.60;99.90
11963;DHT22;62678;52.130;5.584;2023-04-30T10:26:47;15.50;99.90
11963;DHT22;62678;52.130;5.584;2023-04-30T10:29:17;15.50;99.90
11963;DHT22;62678;52.130;5.584;2023-04-30T10:31:46;15.40;99.90
11963;DHT22;62678;52.130;5.584;2023-04-30T10:34:21;15.40;99.90
11963;DHT22;62678;52.130;5.584;2023-04-30T10:36:56;15.40;99.90
11963;DHT22;62678;52.130;5.584;2023-04-30T10:39:26;15.50;99.90
11963;DHT22;62678;52.130;5.584;2023-04-30T10:42:01;15.60;99.90
11963;DHT22;62678;52.130;5.584;2023-04-30T10:44:31;15.70;99.90
11963;DHT22;62678;52.130;5.584;2023-04-30T10:47:00;15.80;99.90
11963;DHT22;62678;52.130;5.584;2023-04-30T10:49:28;16.10;99.90
11963;DHT22;62678;52.130;5.584;2023-04-30T10:51:58;16.20;99.90
11963;DHT22;62678;52.130;5.584;2023-04-30T10:54:27;16.20;99.90
11963;DHT22;62678;52.130;5.584;2023-04-30T10:57:08;16.20;99.90
11963;DHT22;62678;52.130;5.584;2023-04-30T10:59:38;16.20;99.90
11963;DHT22;62678;52.130;5.584;2023-04-30T11:02:10;16.40;99.90
11963;DHT22;62678;52.130;5.584;2023-04-30T11:07:37;16.50;99.90
11963;DHT22;62678;52.130;5.584;2023-04-30T11:10:13;16.80;99.90
11963;DHT22;62678;52.130;5.584;2023-04-30T11:12:40;16.70;99.90
11963;DHT22;62678;52.130;5.584;2023-04-30T11:15:17;17.00;99.90
11963;DHT22;62678;52.130;5.584;2023-04-30T11:17:45;17.00;99.90
11963;DHT22;62678;52.130;5.584;2023-04-30T11:20:17;17.20;99.90
11963;DHT22;62678;52.130;5.584;2023-04-30T11:22:44;17.10;99.90
11963;DHT22;62678;52.130;5.584;2023-04-30T11:25:12;17.00;99.90
11963;DHT22;62678;52.130;5.584;2023-04-30T11:27:44;16.50;99.90
11963;DHT22;62678;52.130;5.584;2023-04-30T11:30:12;16.70;99.90
11963;DHT22;62678;52.130;5.584;2023-04-30T11:32:43;16.70;99.90
11963;DHT22;62678;52.130;5.584;2023-04-30T11:35:12;16.90;99.90
11963;DHT22;62678;52.130;5.584;2023-04-30T11:37:42;16.90;99.90
11963;DHT22;62678;52.130;5.584;2023-04-30T11:40:10;17.10;99.90
11963;DHT22;62678;52.130;5.584;2023-04-30T11:42:38;17.00;99.90
11963;DHT22;62678;52.130;5.584;2023-04-30T11:45:07;17.00;99.90
11963;DHT22;62678;52.130;5.584;2023-04-30T11:47:43;17.20;99.90
11963;DHT22;62678;52.130;5.584;2023-04-30T11:50:12;17.40;99.90
11963;DHT22;62678;52.130;5.584;2023-04-30T11:52:39;17.30;99.90
11963;DHT22;62678;52.130;5.584;2023-04-30T11:55:11;17.50;99.90
11963;DHT22;62678;52.130;5.584;2023-04-30T11:57:40;17.40;99.90
11963;DHT22;62678;52.130;5.584;2023-04-30T12:00:10;17.20;99.90
11963;DHT22;62678;52.130;5.584;2023-04-30T12:02:38;17.40;99.90
11963;DHT22;62678;52.130;5.584;2023-04-30T12:05:11;17.40;99.90
11963;DHT22;62678;52.130;5.584;2023-04-30T12:07:47;17.60;99.90
11963;DHT22;62678;52.130;5.584;2023-04-30T12:10:14;17.60;99.90
11963;DHT22;62678;52.130;5.584;2023-04-30T12:12:42;17.60;99.90
11963;DHT22;62678;52.130;5.584;2023-04-30T12:15:12;17.70;99.90
11963;DHT22;62678;52.130;5.584;2023-04-30T12:17:40;18.00;99.90
11963;DHT22;62678;52.130;5.584;2023-04-30T12:20:11;18.10;99.90
11963;DHT22;62678;52.130;5.584;2023-04-30T12:22:39;18.20;99.90
11963;DHT22;62678;52.130;5.584;2023-04-30T12:25:10;18.40;99.90
11963;DHT22;62678;52.130;5.584;2023-04-30T12:27:39;18.70;99.90
11963;DHT22;62678;52.130;5.584;2023-04-30T12:30:07;18.70;99.90
11963;DHT22;62678;52.130;5.584;2023-04-30T12:32:39;18.90;99.90
11963;DHT22;62678;52.130;5.584;2023-04-30T12:35:07;18.60;99.90
11963;DHT22;62678;52.130;5.584;2023-04-30T12:37:41;18.70;99.90
11963;DHT22;62678;52.130;5.584;2023-04-30T12:40:09;18.80;99.90
11963;DHT22;62678;52.130;5.584;2023-04-30T12:42:37;19.00;99.90
11963;DHT22;62678;52.130;5.584;2023-04-30T12:45:04;19.30;99.90
11963;DHT22;62678;52.130;5.584;2023-04-30T12:47:32;19.30;99.90
11963;DHT22;62678;52.130;5.584;2023-04-30T12:50:08;19.40;99.90
11963;DHT22;62678;52.130;5.584;2023-04-30T12:52:37;19.20;99.90
11963;DHT22;62678;52.130;5.584;2023-04-30T12:55:15;19.10;99.90
11963;DHT22;62678;52.130;5.584;2023-04-30T12:58:04;19.70;99.90
11963;DHT22;62678;52.130;5.584;2023-04-30T13:00:48;20.00;99.90
11963;DHT22;62678;52.130;5.584;2023-04-30T13:03:16;20.10;99.90
11963;DHT22;62678;52.130;5.584;2023-04-30T13:05:48;20.20;99.90
11963;DHT22;62678;52.130;5.584;2023-04-30T13:08:18;20.40;99.90
11963;DHT22;62678;52.130;5.584;2023-04-30T13:10:46;20.40;99.90
11963;DHT22;62678;52.130;5.584;2023-04-30T13:13:15;19.90;99.90
11963;DHT22;62678;52.130;5.584;2023-04-30T13:15:42;20.10;99.90
11963;DHT22;62678;52.130;5.584;2023-04-30T13:18:09;20.30;99.90
11963;DHT22;62678;52.130;5.584;2023-04-30T13:20:37;20.20;99.90
11963;DHT22;62678;52.130;5.584;2023-04-30T13:23:05;20.30;99.90
11963;DHT22;62678;52.130;5.584;2023-04-30T13:25:34;20.20;99.90
11963;DHT22;62678;52.130;5.584;2023-04-30T13:28:01;19.80;99.90
11963;DHT22;62678;52.130;5.584;2023-04-30T13:30:28;20.00;99.90
11963;DHT22;62678;52.130;5.584;2023-04-30T13:32:55;20.20;99.90
11963;DHT22;62678;52.130;5.584;2023-04-30T13:35:23;20.30;99.90
11963;DHT22;62678;52.130;5.584;2023-04-30T13:37:50;20.50;99.90
11963;DHT22;62678;52.130;5.584;2023-04-30T13:40:19;20.30;99.90
11963;DHT22;62678;52.130;5.584;2023-04-30T13:42:47;20.40;99.90
11963;DHT22;62678;52.130;5.584;2023-04-30T13:45:14;21.00;99.90
11963;DHT22;62678;52.130;5.584;2023-04-30T13:47:42;21.20;99.90
11963;DHT22;62678;52.130;5.584;2023-04-30T13:50:09;21.20;99.90
11963;DHT22;62678;52.130;5.584;2023-04-30T13:52:36;20.90;99.90
11963;DHT22;62678;52.130;5.584;2023-04-30T13:55:04;20.50;99.90
11963;DHT22;62678;52.130;5.584;2023-04-30T13:57:31;20.60;99.90
11963;DHT22;62678;52.130;5.584;2023-04-30T14:00:00;21.10;99.90
11963;DHT22;62678;52.130;5.584;2023-04-30T14:02:27;21.10;99.90
11963;DHT22;62678;52.130;5.584;2023-04-30T14:04:54;21.50;99.90
11963;DHT22;62678;52.130;5.584;2023-04-30T14:07:22;21.60;99.90
11963;DHT22;62678;52.130;5.584;2023-04-30T14:09:49;21.80;99.90
11963;DHT22;62678;52.130;5.584;2023-04-30T14:12:16;20.80;99.90
11963;DHT22;62678;52.130;5.584;2023-04-30T14:14:43;21.00;99.90
11963;DHT22;62678;52.130;5.584;2023-04-30T14:17:12;21.20;99.90
11963;DHT22;62678;52.130;5.584;2023-04-30T14:19:39;21.80;99.90
11963;DHT22;62678;52.130;5.584;2023-04-30T14:22:06;22.20;99.90
11963;DHT22;62678;52.130;5.584;2023-04-30T14:24:33;22.00;99.90
11963;DHT22;62678;52.130;5.584;2023-04-30T14:27:00;22.00;99.90
11963;DHT22;62678;52.130;5.584;2023-04-30T14:29:28;21.80;99.90
11963;DHT22;62678;52.130;5.584;2023-04-30T14:31:55;21.70;99.90
11963;DHT22;62678;52.130;5.584;2023-04-30T14:34:24;21.60;99.90
11963;DHT22;62678;52.130;5.584;2023-04-30T14:36:52;21.60;99.90
11963;DHT22;62678;52.130;5.584;2023-04-30T14:39:19;21.50;99.90
11963;DHT22;62678;52.130;5.584;2023-04-30T14:41:46;21.60;99.90
11963;DHT22;62678;52.130;5.584;2023-04-30T14:44:13;21.40;99.90
11963;DHT22;62678;52.130;5.584;2023-04-30T14:46:40;21.70;99.90
11963;DHT22;62678;52.130;5.584;2023-04-30T14:49:07;21.90;99.90
11963;DHT22;62678;52.130;5.584;2023-04-30T14:51:36;21.90;99.90
11963;DHT22;62678;52.130;5.584;2023-04-30T14:54:03;22.60;99.90
11963;DHT22;62678;52.130;5.584;2023-04-30T14:56:30;23.30;99.90
11963;DHT22;62678;52.130;5.584;2023-04-30T14:58:57;23.30;99.90
11963;DHT22;62678;52.130;5.584;2023-04-30T15:01:24;24.20;99.90
11963;DHT22;62678;52.130;5.584;2023-04-30T15:03:51;24.30;99.90
11963;DHT22;62678;52.130;5.584;2023-04-30T15:06:18;24.30;99.90
11963;DHT22;62678;52.130;5.584;2023-04-30T15:08:47;24.50;99.90
11963;DHT22;62678;52.130;5.584;2023-04-30T15:11:14;24.80;99.90
11963;DHT22;62678;52.130;5.584;2023-04-30T15:13:41;24.80;99.90
11963;DHT22;62678;52.130;5.584;2023-04-30T15:16:08;24.40;99.90
11963;DHT22;62678;52.130;5.584;2023-04-30T15:18:35;24.60;99.90
11963;DHT22;62678;52.130;5.584;2023-04-30T15:21:02;24.00;99.90
11963;DHT22;62678;52.130;5.584;2023-04-30T15:23:29;24.20;99.90
11963;DHT22;62678;52.130;5.584;2023-04-30T15:25:58;24.50;99.90
11963;DHT22;62678;52.130;5.584;2023-04-30T15:28:25;24.90;99.90
11963;DHT22;62678;52.130;5.584;2023-04-30T15:30:52;24.90;99.90
11963;DHT22;62678;52.130;5.584;2023-04-30T15:33:19;24.60;99.90
11963;DHT22;62678;52.130;5.584;2023-04-30T15:35:48;25.20;99.90
11963;DHT22;62678;52.130;5.584;2023-04-30T15:38:15;26.00;99.90
11963;DHT22;62678;52.130;5.584;2023-04-30T15:40:42;25.80;99.90
11963;DHT22;62678;52.130;5.584;2023-04-30T15:43:11;25.60;99.90
11963;DHT22;62678;52.130;5.584;2023-04-30T15:45:38;25.50;99.90
11963;DHT22;62678;52.130;5.584;2023-04-30T15:48:05;25.70;99.90